ASL792 EPWA-LYBE
Flight info
| Callsign | ASL792 |
|---|---|
| Flight time | 1h 37m |
| Altitude | 36000 |
| Route | XIMBA N195 VENES M857 PODAN DCT DUFES DCT KSC/N0447F370 DCT KEKED/N0448F380 DCT PARAK/N0369F190 M173 TISAK |
| Aircraft | A21N/M-SDE3FGHIRWY/LB1 |
Departure
| Time | 2026-05-06 12:14 |
|---|---|
| Airport | Warsaw Chopin Airport (EPWA) |
Arrival
| Time | 2026-05-06 13:51 |
|---|---|
| Airport | Belgrade Nikola Tesla Airport (LYBE) |
| Time | Latitude | Longitude | Altitude | Speed | Heading |
|---|---|---|---|---|---|
| 2026-05-06 11:53 | 52.17085 | 20.96774 | 332 ft | 0 kts | 277° |
| 2026-05-06 12:08 | 52.17085 | 20.96769 | 333 ft | 1 kts | 277° |
| 2026-05-06 12:09 | 52.17085 | 20.96742 | 332 ft | 3 kts | 263° |
| 2026-05-06 12:09 | 52.17071 | 20.96701 | 332 ft | 5 kts | 204° |
| 2026-05-06 12:09 | 52.17023 | 20.96719 | 331 ft | 9 kts | 153° |
| 2026-05-06 12:09 | 52.16953 | 20.96780 | 331 ft | 13 kts | 152° |
| 2026-05-06 12:10 | 52.16864 | 20.96854 | 331 ft | 14 kts | 153° |
| 2026-05-06 12:10 | 52.16774 | 20.96929 | 333 ft | 14 kts | 152° |
| 2026-05-06 12:10 | 52.16686 | 20.97015 | 334 ft | 14 kts | 143° |
| 2026-05-06 12:10 | 52.16641 | 20.97121 | 336 ft | 8 kts | 116° |
| 2026-05-06 12:11 | 52.16615 | 20.97209 | 337 ft | 9 kts | 114° |
| 2026-05-06 12:11 | 52.16587 | 20.97312 | 337 ft | 10 kts | 113° |
| 2026-05-06 12:11 | 52.16555 | 20.97435 | 337 ft | 12 kts | 114° |
| 2026-05-06 12:11 | 52.16517 | 20.97572 | 337 ft | 14 kts | 114° |
| 2026-05-06 12:12 | 52.16494 | 20.97657 | 337 ft | 3 kts | 114° |
| 2026-05-06 12:12 | 52.16489 | 20.97674 | 337 ft | 2 kts | 114° |
| 2026-05-06 12:12 | 52.16475 | 20.97724 | 337 ft | 6 kts | 114° |
| 2026-05-06 12:12 | 52.16453 | 20.97794 | 336 ft | 6 kts | 133° |
| 2026-05-06 12:13 | 52.16398 | 20.97799 | 335 ft | 10 kts | 197° |
| 2026-05-06 12:13 | 52.16333 | 20.97755 | 334 ft | 9 kts | 207° |
| 2026-05-06 12:13 | 52.16306 | 20.97665 | 334 ft | 10 kts | 286° |
| 2026-05-06 12:13 | 52.16401 | 20.97322 | 337 ft | 72 kts | 291° |
| 2026-05-06 12:14 | 52.16711 | 20.96212 | 337 ft | 141 kts | 296° |
| 2026-05-06 12:14 | 52.17181 | 20.94503 | 579 ft | 179 kts | 290° |
| 2026-05-06 12:14 | 52.17688 | 20.92698 | 1372 ft | 177 kts | 291° |
| 2026-05-06 12:14 | 52.18165 | 20.90984 | 2317 ft | 165 kts | 283° |
| 2026-05-06 12:15 | 52.18274 | 20.89140 | 2910 ft | 172 kts | 259° |
| 2026-05-06 12:15 | 52.18021 | 20.87160 | 3462 ft | 187 kts | 254° |
| 2026-05-06 12:15 | 52.17703 | 20.85023 | 4014 ft | 205 kts | 254° |
| 2026-05-06 12:15 | 52.17353 | 20.82666 | 4535 ft | 226 kts | 255° |
| 2026-05-06 12:16 | 52.16981 | 20.80096 | 5073 ft | 246 kts | 255° |
| 2026-05-06 12:16 | 52.16588 | 20.77334 | 5883 ft | 255 kts | 255° |
| 2026-05-06 12:16 | 52.16188 | 20.74502 | 6730 ft | 262 kts | 255° |
| 2026-05-06 12:16 | 52.15584 | 20.71740 | 7680 ft | 263 kts | 240° |
| 2026-05-06 12:17 | 52.14462 | 20.69491 | 8656 ft | 264 kts | 223° |
| 2026-05-06 12:17 | 52.13046 | 20.67635 | 9588 ft | 266 kts | 220° |
| 2026-05-06 12:17 | 52.11568 | 20.65776 | 10417 ft | 273 kts | 220° |
| 2026-05-06 12:17 | 52.10043 | 20.63859 | 10920 ft | 289 kts | 219° |
| 2026-05-06 12:18 | 52.08395 | 20.61785 | 11370 ft | 308 kts | 219° |
| 2026-05-06 12:18 | 52.06664 | 20.59605 | 11835 ft | 324 kts | 219° |
| 2026-05-06 12:18 | 52.04873 | 20.57349 | 12565 ft | 331 kts | 219° |
| 2026-05-06 12:18 | 52.03068 | 20.55078 | 13380 ft | 335 kts | 219° |
| 2026-05-06 12:19 | 52.01231 | 20.52766 | 14174 ft | 338 kts | 219° |
| 2026-05-06 12:19 | 51.99340 | 20.50412 | 14966 ft | 342 kts | 217° |
| 2026-05-06 12:19 | 51.97208 | 20.48738 | 15714 ft | 349 kts | 198° |
| 2026-05-06 12:19 | 51.94781 | 20.48366 | 16475 ft | 358 kts | 180° |
| 2026-05-06 12:20 | 51.92341 | 20.49409 | 17202 ft | 371 kts | 160° |
| 2026-05-06 12:20 | 51.90224 | 20.51834 | 17874 ft | 385 kts | 141° |
| 2026-05-06 12:20 | 51.88360 | 20.54949 | 18602 ft | 390 kts | 139° |
| 2026-05-06 12:20 | 51.86490 | 20.58142 | 19265 ft | 394 kts | 139° |
| 2026-05-06 12:21 | 51.84602 | 20.61356 | 19961 ft | 396 kts | 138° |
| 2026-05-06 12:21 | 51.82722 | 20.64538 | 20744 ft | 396 kts | 138° |
| 2026-05-06 12:21 | 51.80816 | 20.67747 | 21408 ft | 399 kts | 138° |
| 2026-05-06 12:21 | 51.78907 | 20.70983 | 22006 ft | 404 kts | 136° |
| 2026-05-06 12:22 | 51.77315 | 20.74781 | 22559 ft | 416 kts | 120° |
| 2026-05-06 12:22 | 51.76391 | 20.79209 | 23138 ft | 426 kts | 104° |
| 2026-05-06 12:22 | 51.76072 | 20.84021 | 23724 ft | 432 kts | 96° |
| 2026-05-06 12:22 | 51.75908 | 20.88827 | 24268 ft | 436 kts | 95° |
| 2026-05-06 12:23 | 51.75753 | 20.93740 | 24806 ft | 439 kts | 96° |
| 2026-05-06 12:23 | 51.75578 | 20.98578 | 25444 ft | 439 kts | 96° |
| 2026-05-06 12:23 | 51.75377 | 21.03508 | 26002 ft | 440 kts | 96° |
| 2026-05-06 12:23 | 51.75158 | 21.08445 | 26474 ft | 443 kts | 98° |
| 2026-05-06 12:24 | 51.74662 | 21.13354 | 26882 ft | 444 kts | 107° |
| 2026-05-06 12:24 | 51.73701 | 21.18140 | 27328 ft | 443 kts | 116° |
| 2026-05-06 12:24 | 51.72376 | 21.22562 | 27774 ft | 443 kts | 121° |
| 2026-05-06 12:24 | 51.70895 | 21.26969 | 28215 ft | 445 kts | 122° |
| 2026-05-06 12:25 | 51.69393 | 21.31370 | 28633 ft | 448 kts | 122° |
| 2026-05-06 12:25 | 51.67859 | 21.35785 | 29028 ft | 449 kts | 125° |
| 2026-05-06 12:25 | 51.66044 | 21.39885 | 29406 ft | 447 kts | 133° |
| 2026-05-06 12:25 | 51.63892 | 21.43550 | 29780 ft | 445 kts | 141° |
| 2026-05-06 12:26 | 51.61517 | 21.46618 | 30151 ft | 443 kts | 149° |
| 2026-05-06 12:26 | 51.58902 | 21.49266 | 30527 ft | 442 kts | 153° |
| 2026-05-06 12:26 | 51.56257 | 21.51777 | 30949 ft | 442 kts | 153° |
| 2026-05-06 12:26 | 51.53624 | 21.54262 | 31458 ft | 440 kts | 153° |
| 2026-05-06 12:27 | 51.50995 | 21.56760 | 31950 ft | 438 kts | 153° |
| 2026-05-06 12:27 | 51.48377 | 21.59258 | 32413 ft | 436 kts | 153° |
| 2026-05-06 12:27 | 51.45793 | 21.61724 | 32834 ft | 435 kts | 153° |
| 2026-05-06 12:27 | 51.43158 | 21.64236 | 33223 ft | 434 kts | 153° |
| 2026-05-06 12:28 | 51.40567 | 21.66711 | 33602 ft | 434 kts | 153° |
| 2026-05-06 12:28 | 51.38006 | 21.69161 | 33977 ft | 432 kts | 153° |
| 2026-05-06 12:28 | 51.35457 | 21.71597 | 34318 ft | 432 kts | 153° |
| 2026-05-06 12:28 | 51.32865 | 21.74067 | 34598 ft | 433 kts | 154° |
| 2026-05-06 12:29 | 51.30279 | 21.76525 | 34829 ft | 434 kts | 153° |
| 2026-05-06 12:29 | 51.27658 | 21.79009 | 35022 ft | 435 kts | 153° |
| 2026-05-06 12:29 | 51.25063 | 21.81465 | 35208 ft | 436 kts | 153° |
| 2026-05-06 12:29 | 51.22442 | 21.83942 | 35404 ft | 437 kts | 153° |
| 2026-05-06 12:30 | 51.19826 | 21.86407 | 35588 ft | 438 kts | 154° |
| 2026-05-06 12:30 | 51.17144 | 21.88546 | 35741 ft | 435 kts | 162° |
| 2026-05-06 12:30 | 51.14229 | 21.89820 | 35805 ft | 430 kts | 175° |
| 2026-05-06 12:30 | 51.11288 | 21.89937 | 35814 ft | 424 kts | 189° |
| 2026-05-06 12:31 | 51.05477 | 21.88451 | 35823 ft | 424 kts | 192° |
| 2026-05-06 12:31 | 50.99641 | 21.86805 | 35824 ft | 425 kts | 192° |
| 2026-05-06 12:32 | 50.93791 | 21.85164 | 35824 ft | 425 kts | 192° |
| 2026-05-06 12:32 | 50.87977 | 21.83544 | 35826 ft | 426 kts | 192° |
| 2026-05-06 12:33 | 50.82093 | 21.81915 | 35829 ft | 425 kts | 192° |
| 2026-05-06 12:33 | 50.76208 | 21.80286 | 35830 ft | 426 kts | 192° |
| 2026-05-06 12:34 | 50.70383 | 21.78672 | 35828 ft | 425 kts | 193° |
| 2026-05-06 12:34 | 50.64541 | 21.77058 | 35829 ft | 425 kts | 193° |
| 2026-05-06 12:35 | 50.58701 | 21.75453 | 35828 ft | 426 kts | 193° |
| 2026-05-06 12:35 | 50.52856 | 21.73853 | 35829 ft | 427 kts | 193° |
| 2026-05-06 12:36 | 50.46944 | 21.72235 | 35830 ft | 426 kts | 193° |
| 2026-05-06 12:36 | 50.41059 | 21.70627 | 35828 ft | 426 kts | 193° |
| 2026-05-06 12:37 | 50.35179 | 21.69024 | 35832 ft | 427 kts | 193° |
| 2026-05-06 12:37 | 50.29303 | 21.67425 | 35832 ft | 426 kts | 193° |
| 2026-05-06 12:38 | 50.23471 | 21.65842 | 35835 ft | 427 kts | 193° |
| 2026-05-06 12:38 | 50.17561 | 21.64241 | 35839 ft | 428 kts | 193° |
| 2026-05-06 12:39 | 50.11595 | 21.62630 | 35846 ft | 429 kts | 193° |
| 2026-05-06 12:39 | 50.05754 | 21.61056 | 35847 ft | 428 kts | 193° |
| 2026-05-06 12:40 | 49.99901 | 21.59482 | 35850 ft | 429 kts | 193° |
| 2026-05-06 12:40 | 49.94017 | 21.57904 | 35848 ft | 428 kts | 193° |
| 2026-05-06 12:41 | 49.88165 | 21.56340 | 35849 ft | 428 kts | 193° |
| 2026-05-06 12:41 | 49.82286 | 21.54782 | 35856 ft | 429 kts | 193° |
| 2026-05-06 12:42 | 49.76397 | 21.53219 | 35853 ft | 429 kts | 193° |
| 2026-05-06 12:42 | 49.70506 | 21.51656 | 35854 ft | 430 kts | 193° |
| 2026-05-06 12:43 | 49.64582 | 21.50087 | 35866 ft | 429 kts | 193° |
| 2026-05-06 12:43 | 49.58729 | 21.48539 | 35876 ft | 429 kts | 193° |
| 2026-05-06 12:44 | 49.52853 | 21.46986 | 35881 ft | 429 kts | 193° |
| 2026-05-06 12:44 | 49.46963 | 21.45433 | 35888 ft | 429 kts | 193° |
| 2026-05-06 12:45 | 49.41095 | 21.43893 | 35887 ft | 429 kts | 193° |
| 2026-05-06 12:46 | 49.32289 | 21.41568 | 35897 ft | 430 kts | 193° |
| 2026-05-06 12:46 | 49.26423 | 21.40017 | 35902 ft | 429 kts | 193° |
| 2026-05-06 12:47 | 49.20536 | 21.38461 | 35905 ft | 429 kts | 193° |
| 2026-05-06 12:47 | 49.14620 | 21.36899 | 35901 ft | 429 kts | 193° |
| 2026-05-06 12:48 | 49.08743 | 21.35350 | 35897 ft | 429 kts | 193° |
| 2026-05-06 12:48 | 49.02862 | 21.33788 | 35898 ft | 430 kts | 193° |
| 2026-05-06 12:49 | 48.96854 | 21.32199 | 35894 ft | 430 kts | 193° |
| 2026-05-06 12:49 | 48.90950 | 21.30658 | 35897 ft | 430 kts | 193° |
| 2026-05-06 12:50 | 48.84960 | 21.29114 | 35897 ft | 430 kts | 193° |
| 2026-05-06 12:50 | 48.79036 | 21.27587 | 35895 ft | 430 kts | 193° |
| 2026-05-06 12:51 | 48.73048 | 21.26366 | 35904 ft | 433 kts | 188° |
| 2026-05-06 12:51 | 48.67004 | 21.26111 | 35902 ft | 436 kts | 182° |
| 2026-05-06 12:52 | 48.60914 | 21.26837 | 35901 ft | 439 kts | 178° |
| 2026-05-06 12:52 | 48.54763 | 21.27369 | 35901 ft | 436 kts | 185° |
| 2026-05-06 12:53 | 48.48644 | 21.26476 | 35898 ft | 431 kts | 194° |
| 2026-05-06 12:53 | 48.42893 | 21.24155 | 35909 ft | 427 kts | 202° |
| 2026-05-06 12:54 | 48.37296 | 21.21195 | 35908 ft | 428 kts | 203° |
| 2026-05-06 12:54 | 48.31703 | 21.18228 | 35912 ft | 428 kts | 203° |
| 2026-05-06 12:55 | 48.26092 | 21.15267 | 35913 ft | 427 kts | 203° |
| 2026-05-06 12:55 | 48.20451 | 21.12297 | 35908 ft | 427 kts | 203° |
| 2026-05-06 12:56 | 48.14856 | 21.09362 | 35909 ft | 428 kts | 203° |
| 2026-05-06 12:56 | 48.09226 | 21.06415 | 35904 ft | 428 kts | 203° |
| 2026-05-06 12:57 | 48.03612 | 21.03483 | 35904 ft | 429 kts | 203° |
| 2026-05-06 12:57 | 47.97987 | 21.00554 | 35900 ft | 429 kts | 203° |
| 2026-05-06 12:58 | 47.92207 | 20.97547 | 35903 ft | 429 kts | 203° |
| 2026-05-06 12:58 | 47.86457 | 20.94574 | 35904 ft | 429 kts | 203° |
| 2026-05-06 12:59 | 47.80825 | 20.91678 | 35909 ft | 428 kts | 204° |
| 2026-05-06 12:59 | 47.75188 | 20.88776 | 35909 ft | 428 kts | 204° |
| 2026-05-06 13:00 | 47.69607 | 20.85904 | 35909 ft | 428 kts | 204° |
| 2026-05-06 13:00 | 47.63814 | 20.82926 | 35920 ft | 428 kts | 204° |
| 2026-05-06 13:01 | 47.58147 | 20.80022 | 35925 ft | 429 kts | 204° |
| 2026-05-06 13:01 | 47.52534 | 20.77151 | 35926 ft | 429 kts | 204° |
| 2026-05-06 13:02 | 47.46902 | 20.74279 | 35924 ft | 429 kts | 204° |
| 2026-05-06 13:02 | 47.41265 | 20.71410 | 35924 ft | 429 kts | 204° |
| 2026-05-06 13:03 | 47.35625 | 20.68545 | 35925 ft | 429 kts | 204° |
| 2026-05-06 13:03 | 47.30021 | 20.65703 | 35924 ft | 428 kts | 204° |
| 2026-05-06 13:04 | 47.24391 | 20.62856 | 35922 ft | 429 kts | 204° |
| 2026-05-06 13:04 | 47.18771 | 20.60020 | 35925 ft | 429 kts | 204° |
| 2026-05-06 13:05 | 47.13119 | 20.57176 | 35923 ft | 429 kts | 204° |
| 2026-05-06 13:05 | 47.07512 | 20.54358 | 35922 ft | 430 kts | 204° |
| 2026-05-06 13:06 | 47.01852 | 20.51522 | 35923 ft | 429 kts | 204° |
| 2026-05-06 13:06 | 46.96238 | 20.48713 | 35925 ft | 430 kts | 204° |
| 2026-05-06 13:07 | 46.90567 | 20.45883 | 35925 ft | 430 kts | 204° |
| 2026-05-06 13:07 | 46.84936 | 20.43094 | 35922 ft | 430 kts | 204° |
| 2026-05-06 13:08 | 46.79280 | 20.40298 | 35920 ft | 429 kts | 204° |
| 2026-05-06 13:08 | 46.73632 | 20.37503 | 35920 ft | 430 kts | 204° |
| 2026-05-06 13:09 | 46.67979 | 20.34708 | 35921 ft | 431 kts | 203° |
| 2026-05-06 13:09 | 46.62297 | 20.31877 | 35359 ft | 432 kts | 204° |
| 2026-05-06 13:09 | 46.59461 | 20.30471 | 34762 ft | 431 kts | 203° |
| 2026-05-06 13:10 | 46.56650 | 20.29080 | 34096 ft | 431 kts | 203° |
| 2026-05-06 13:10 | 46.53824 | 20.27684 | 33409 ft | 431 kts | 203° |
| 2026-05-06 13:10 | 46.50976 | 20.26282 | 32708 ft | 431 kts | 203° |
| 2026-05-06 13:10 | 46.48157 | 20.24899 | 31997 ft | 432 kts | 203° |
| 2026-05-06 13:11 | 46.45329 | 20.23511 | 31270 ft | 433 kts | 202° |
| 2026-05-06 13:11 | 46.42467 | 20.22109 | 30528 ft | 433 kts | 202° |
| 2026-05-06 13:11 | 46.39624 | 20.20719 | 29785 ft | 434 kts | 202° |
| 2026-05-06 13:11 | 46.36789 | 20.19332 | 29203 ft | 431 kts | 202° |
| 2026-05-06 13:12 | 46.33983 | 20.17967 | 28734 ft | 426 kts | 202° |
| 2026-05-06 13:12 | 46.31202 | 20.16614 | 28245 ft | 421 kts | 202° |
| 2026-05-06 13:12 | 46.28421 | 20.15262 | 27754 ft | 417 kts | 202° |
| 2026-05-06 13:12 | 46.25697 | 20.13935 | 27273 ft | 413 kts | 201° |
| 2026-05-06 13:13 | 46.22986 | 20.12619 | 26790 ft | 409 kts | 201° |
| 2026-05-06 13:13 | 46.20336 | 20.11337 | 26327 ft | 406 kts | 201° |
| 2026-05-06 13:13 | 46.17599 | 20.10354 | 25880 ft | 405 kts | 193° |
| 2026-05-06 13:13 | 46.14790 | 20.09965 | 25419 ft | 405 kts | 184° |
| 2026-05-06 13:14 | 46.12017 | 20.10160 | 24959 ft | 404 kts | 176° |
| 2026-05-06 13:14 | 46.09236 | 20.10638 | 24470 ft | 402 kts | 175° |
| 2026-05-06 13:14 | 46.06481 | 20.11158 | 23999 ft | 399 kts | 174° |
| 2026-05-06 13:14 | 46.03739 | 20.11677 | 23539 ft | 396 kts | 174° |
| 2026-05-06 13:15 | 46.01023 | 20.12185 | 23082 ft | 392 kts | 174° |
| 2026-05-06 13:15 | 45.98331 | 20.12682 | 22622 ft | 390 kts | 174° |
| 2026-05-06 13:15 | 45.95639 | 20.13175 | 22161 ft | 387 kts | 174° |
| 2026-05-06 13:15 | 45.92975 | 20.13660 | 21703 ft | 384 kts | 174° |
| 2026-05-06 13:16 | 45.90368 | 20.14132 | 21251 ft | 382 kts | 174° |
| 2026-05-06 13:16 | 45.87728 | 20.14608 | 20796 ft | 379 kts | 174° |
| 2026-05-06 13:16 | 45.85132 | 20.15073 | 20343 ft | 377 kts | 174° |
| 2026-05-06 13:16 | 45.82525 | 20.15539 | 19886 ft | 374 kts | 174° |
| 2026-05-06 13:17 | 45.79976 | 20.15997 | 19439 ft | 372 kts | 174° |
| 2026-05-06 13:17 | 45.77420 | 20.16455 | 18989 ft | 369 kts | 174° |
| 2026-05-06 13:17 | 45.74890 | 20.16907 | 18540 ft | 367 kts | 174° |
| 2026-05-06 13:17 | 45.72370 | 20.17358 | 18097 ft | 364 kts | 174° |
| 2026-05-06 13:18 | 45.69857 | 20.17807 | 17649 ft | 362 kts | 174° |
| 2026-05-06 13:18 | 45.67363 | 20.18252 | 17202 ft | 360 kts | 174° |
| 2026-05-06 13:18 | 45.64910 | 20.18690 | 16756 ft | 358 kts | 174° |
| 2026-05-06 13:18 | 45.62436 | 20.19133 | 16307 ft | 356 kts | 174° |
| 2026-05-06 13:19 | 45.60000 | 20.19568 | 15864 ft | 354 kts | 174° |
| 2026-05-06 13:19 | 45.57561 | 20.20003 | 15419 ft | 352 kts | 174° |
| 2026-05-06 13:19 | 45.55159 | 20.20430 | 14977 ft | 350 kts | 174° |
| 2026-05-06 13:19 | 45.52759 | 20.20856 | 14532 ft | 348 kts | 174° |
| 2026-05-06 13:20 | 45.50377 | 20.21278 | 14094 ft | 346 kts | 174° |
| 2026-05-06 13:20 | 45.47977 | 20.21703 | 13649 ft | 344 kts | 174° |
| 2026-05-06 13:20 | 45.45607 | 20.22124 | 13210 ft | 342 kts | 174° |
| 2026-05-06 13:20 | 45.43263 | 20.22420 | 12773 ft | 339 kts | 180° |
| 2026-05-06 13:21 | 45.40946 | 20.22304 | 12346 ft | 336 kts | 187° |
| 2026-05-06 13:21 | 45.38640 | 20.21801 | 11919 ft | 333 kts | 191° |
| 2026-05-06 13:21 | 45.36362 | 20.21183 | 11486 ft | 331 kts | 192° |
| 2026-05-06 13:21 | 45.34100 | 20.20553 | 11052 ft | 329 kts | 192° |
| 2026-05-06 13:22 | 45.31867 | 20.19932 | 10625 ft | 327 kts | 192° |
| 2026-05-06 13:22 | 45.29657 | 20.19323 | 10252 ft | 322 kts | 192° |
| 2026-05-06 13:22 | 45.27511 | 20.18737 | 10155 ft | 308 kts | 192° |
| 2026-05-06 13:22 | 45.25461 | 20.18180 | 10064 ft | 294 kts | 192° |
| 2026-05-06 13:23 | 45.23515 | 20.17651 | 9977 ft | 280 kts | 192° |
| 2026-05-06 13:23 | 45.21604 | 20.17132 | 9705 ft | 276 kts | 192° |
| 2026-05-06 13:23 | 45.19745 | 20.16628 | 9369 ft | 274 kts | 192° |
| 2026-05-06 13:23 | 45.17876 | 20.16119 | 9034 ft | 271 kts | 192° |
| 2026-05-06 13:24 | 45.16051 | 20.15624 | 8716 ft | 269 kts | 192° |
| 2026-05-06 13:24 | 45.14224 | 20.15129 | 8552 ft | 259 kts | 193° |
| 2026-05-06 13:24 | 45.12571 | 20.14406 | 8498 ft | 245 kts | 204° |
| 2026-05-06 13:24 | 45.11068 | 20.13282 | 8201 ft | 243 kts | 211° |
| 2026-05-06 13:25 | 45.09634 | 20.12023 | 7918 ft | 241 kts | 213° |
| 2026-05-06 13:25 | 45.08225 | 20.10766 | 7640 ft | 240 kts | 212° |
| 2026-05-06 13:25 | 45.06826 | 20.09499 | 7352 ft | 239 kts | 217° |
| 2026-05-06 13:25 | 45.05782 | 20.07719 | 7033 ft | 238 kts | 246° |
| 2026-05-06 13:26 | 45.05515 | 20.05428 | 6849 ft | 245 kts | 275° |
| 2026-05-06 13:26 | 45.06079 | 20.03130 | 6879 ft | 253 kts | 298° |
| 2026-05-06 13:26 | 45.07020 | 20.00991 | 6909 ft | 255 kts | 300° |
| 2026-05-06 13:26 | 45.07968 | 19.98893 | 6924 ft | 255 kts | 300° |
| 2026-05-06 13:27 | 45.08921 | 19.96763 | 6943 ft | 255 kts | 300° |
| 2026-05-06 13:27 | 45.09850 | 19.94661 | 6938 ft | 255 kts | 300° |
| 2026-05-06 13:27 | 45.10792 | 19.92512 | 6932 ft | 254 kts | 299° |
| 2026-05-06 13:27 | 45.11716 | 19.90398 | 6930 ft | 254 kts | 299° |
| 2026-05-06 13:28 | 45.12648 | 19.88265 | 6920 ft | 254 kts | 299° |
| 2026-05-06 13:28 | 45.13491 | 19.86075 | 6912 ft | 251 kts | 285° |
| 2026-05-06 13:28 | 45.13568 | 19.83666 | 6915 ft | 246 kts | 254° |
| 2026-05-06 13:28 | 45.12772 | 19.81565 | 6917 ft | 243 kts | 225° |
| 2026-05-06 13:29 | 45.11411 | 19.80168 | 6925 ft | 245 kts | 211° |
| 2026-05-06 13:29 | 45.09942 | 19.78940 | 6919 ft | 246 kts | 211° |
| 2026-05-06 13:29 | 45.08451 | 19.77734 | 6903 ft | 247 kts | 205° |
| 2026-05-06 13:29 | 45.06784 | 19.77312 | 6581 ft | 250 kts | 174° |
| 2026-05-06 13:30 | 45.05197 | 19.78203 | 6254 ft | 251 kts | 144° |
| 2026-05-06 13:30 | 45.04076 | 19.80103 | 5955 ft | 251 kts | 123° |
| 2026-05-06 13:30 | 45.03188 | 19.82206 | 5680 ft | 248 kts | 123° |
| 2026-05-06 13:30 | 45.02327 | 19.84252 | 5417 ft | 244 kts | 123° |
| 2026-05-06 13:31 | 45.01449 | 19.86302 | 5149 ft | 241 kts | 123° |
| 2026-05-06 13:31 | 45.00581 | 19.88303 | 4898 ft | 238 kts | 123° |
| 2026-05-06 13:31 | 44.99716 | 19.90284 | 4654 ft | 235 kts | 123° |
| 2026-05-06 13:31 | 44.98869 | 19.92210 | 4409 ft | 233 kts | 123° |
| 2026-05-06 13:32 | 44.98013 | 19.94153 | 4154 ft | 231 kts | 123° |
| 2026-05-06 13:32 | 44.97176 | 19.96054 | 3974 ft | 224 kts | 123° |
| 2026-05-06 13:32 | 44.96356 | 19.97913 | 3972 ft | 226 kts | 123° |
| 2026-05-06 13:32 | 44.95541 | 19.99803 | 3964 ft | 227 kts | 121° |
| 2026-05-06 13:33 | 44.94764 | 20.01758 | 3809 ft | 226 kts | 120° |
| 2026-05-06 13:33 | 44.93984 | 20.03668 | 3684 ft | 225 kts | 121° |
| 2026-05-06 13:33 | 44.93177 | 20.05552 | 3566 ft | 224 kts | 123° |
| 2026-05-06 13:33 | 44.92349 | 20.07421 | 3275 ft | 228 kts | 123° |
| 2026-05-06 13:34 | 44.91505 | 20.09297 | 3027 ft | 224 kts | 123° |
| 2026-05-06 13:34 | 44.90671 | 20.11144 | 2981 ft | 221 kts | 123° |
| 2026-05-06 13:34 | 44.89850 | 20.12967 | 2833 ft | 223 kts | 123° |
| 2026-05-06 13:34 | 44.89010 | 20.14817 | 2559 ft | 222 kts | 123° |
| 2026-05-06 13:35 | 44.88191 | 20.16636 | 2280 ft | 221 kts | 122° |
| 2026-05-06 13:35 | 44.87380 | 20.18456 | 1999 ft | 220 kts | 123° |
| 2026-05-06 13:35 | 44.86583 | 20.20253 | 1715 ft | 211 kts | 122° |
| 2026-05-06 13:35 | 44.85838 | 20.21931 | 1528 ft | 193 kts | 123° |
| 2026-05-06 13:36 | 44.85154 | 20.23471 | 1306 ft | 179 kts | 123° |
| 2026-05-06 13:36 | 44.84516 | 20.24904 | 1047 ft | 166 kts | 122° |
| 2026-05-06 13:36 | 44.83928 | 20.26222 | 809 ft | 152 kts | 123° |
| 2026-05-06 13:36 | 44.83391 | 20.27447 | 574 ft | 144 kts | 123° |
| 2026-05-06 13:37 | 44.82865 | 20.28627 | 441 ft | 143 kts | 123° |
| 2026-05-06 13:37 | 44.82338 | 20.29811 | 348 ft | 140 kts | 123° |
| 2026-05-06 13:37 | 44.81800 | 20.31033 | 449 ft | 159 kts | 124° |
| 2026-05-06 13:37 | 44.81185 | 20.32405 | 753 ft | 159 kts | 122° |
| 2026-05-06 13:38 | 44.80630 | 20.33681 | 766 ft | 150 kts | 121° |
| 2026-05-06 13:38 | 44.80085 | 20.34901 | 557 ft | 147 kts | 124° |
| 2026-05-06 13:38 | 44.79492 | 20.36179 | 476 ft | 174 kts | 125° |
| 2026-05-06 13:38 | 44.78815 | 20.37593 | 1049 ft | 172 kts | 123° |
| 2026-05-06 13:39 | 44.78043 | 20.38843 | 1520 ft | 178 kts | 147° |
| 2026-05-06 13:39 | 44.76846 | 20.39209 | 2008 ft | 185 kts | 187° |
| 2026-05-06 13:39 | 44.75708 | 20.38409 | 2576 ft | 190 kts | 223° |
| 2026-05-06 13:39 | 44.75048 | 20.36820 | 2876 ft | 198 kts | 257° |
| 2026-05-06 13:40 | 44.75304 | 20.34801 | 2964 ft | 228 kts | 299° |
| 2026-05-06 13:40 | 44.76419 | 20.33091 | 2921 ft | 245 kts | 322° |
| 2026-05-06 13:40 | 44.77798 | 20.31741 | 2947 ft | 240 kts | 327° |
| 2026-05-06 13:40 | 44.79207 | 20.30496 | 2959 ft | 237 kts | 328° |
| 2026-05-06 13:41 | 44.80635 | 20.29237 | 2976 ft | 254 kts | 327° |
| 2026-05-06 13:41 | 44.82215 | 20.27818 | 2984 ft | 285 kts | 327° |
| 2026-05-06 13:41 | 44.83974 | 20.26211 | 2986 ft | 316 kts | 327° |
| 2026-05-06 13:41 | 44.85838 | 20.24493 | 2981 ft | 325 kts | 327° |
| 2026-05-06 13:42 | 44.87749 | 20.22723 | 2978 ft | 326 kts | 327° |
| 2026-05-06 13:42 | 44.89633 | 20.20972 | 2978 ft | 327 kts | 326° |
| 2026-05-06 13:42 | 44.91550 | 20.19188 | 2978 ft | 327 kts | 326° |
| 2026-05-06 13:42 | 44.93432 | 20.17435 | 2977 ft | 327 kts | 326° |
| 2026-05-06 13:43 | 44.95329 | 20.15666 | 2976 ft | 327 kts | 326° |
| 2026-05-06 13:43 | 44.97207 | 20.13912 | 2969 ft | 319 kts | 326° |
| 2026-05-06 13:43 | 44.99014 | 20.12222 | 2962 ft | 300 kts | 326° |
| 2026-05-06 13:43 | 45.00699 | 20.10646 | 2958 ft | 282 kts | 326° |
| 2026-05-06 13:44 | 45.02285 | 20.09160 | 2955 ft | 266 kts | 326° |
| 2026-05-06 13:44 | 45.03763 | 20.07696 | 2948 ft | 249 kts | 319° |
| 2026-05-06 13:44 | 45.04852 | 20.05937 | 2928 ft | 234 kts | 294° |
| 2026-05-06 13:44 | 45.05128 | 20.03734 | 2942 ft | 230 kts | 260° |
| 2026-05-06 13:45 | 45.04544 | 20.01688 | 2953 ft | 225 kts | 229° |
| 2026-05-06 13:45 | 45.01824 | 19.99989 | 2966 ft | 220 kts | 182° |
| 2026-05-06 13:45 | 45.00296 | 19.99906 | 2957 ft | 220 kts | 181° |
| 2026-05-06 13:46 | 44.98760 | 19.99828 | 2956 ft | 221 kts | 181° |
| 2026-05-06 13:46 | 44.97232 | 19.99737 | 2961 ft | 222 kts | 181° |
| 2026-05-06 13:46 | 44.95720 | 20.00032 | 2947 ft | 219 kts | 154° |
| 2026-05-06 13:46 | 44.94588 | 20.01394 | 2960 ft | 218 kts | 124° |
| 2026-05-06 13:47 | 44.93835 | 20.03284 | 2968 ft | 220 kts | 117° |
| 2026-05-06 13:47 | 44.93155 | 20.05188 | 2966 ft | 220 kts | 118° |
| 2026-05-06 13:47 | 44.92415 | 20.07079 | 2966 ft | 220 kts | 121° |
| 2026-05-06 13:47 | 44.91634 | 20.08920 | 2966 ft | 220 kts | 122° |
| 2026-05-06 13:48 | 44.90817 | 20.10774 | 2966 ft | 220 kts | 123° |
| 2026-05-06 13:48 | 44.90000 | 20.12603 | 2874 ft | 221 kts | 123° |
| 2026-05-06 13:48 | 44.89194 | 20.14403 | 2627 ft | 220 kts | 123° |
| 2026-05-06 13:48 | 44.88383 | 20.16221 | 2345 ft | 219 kts | 123° |
| 2026-05-06 13:49 | 44.87576 | 20.18031 | 2065 ft | 218 kts | 123° |
| 2026-05-06 13:49 | 44.86774 | 20.19831 | 1783 ft | 211 kts | 122° |
| 2026-05-06 13:49 | 44.86026 | 20.21511 | 1568 ft | 196 kts | 122° |
| 2026-05-06 13:49 | 44.85330 | 20.23076 | 1381 ft | 182 kts | 123° |
| 2026-05-06 13:50 | 44.84667 | 20.24568 | 1127 ft | 181 kts | 123° |
| 2026-05-06 13:50 | 44.83996 | 20.26077 | 875 ft | 181 kts | 122° |
| 2026-05-06 13:50 | 44.83336 | 20.27561 | 627 ft | 180 kts | 124° |
| 2026-05-06 13:50 | 44.82705 | 20.28996 | 407 ft | 162 kts | 123° |
| 2026-05-06 13:51 | 44.82145 | 20.30245 | 342 ft | 140 kts | 123° |
| 2026-05-06 13:51 | 44.81707 | 20.31228 | 342 ft | 94 kts | 122° |
| 2026-05-06 13:51 | 44.81442 | 20.31834 | 342 ft | 60 kts | 123° |
| 2026-05-06 13:51 | 44.81224 | 20.32261 | 342 ft | 45 kts | 152° |
| 2026-05-06 13:52 | 44.81000 | 20.32205 | 342 ft | 26 kts | 253° |
| 2026-05-06 13:52 | 44.81053 | 20.31986 | 342 ft | 24 kts | 301° |
| 2026-05-06 13:52 | 44.81138 | 20.31783 | 342 ft | 24 kts | 301° |
| 2026-05-06 13:52 | 44.81227 | 20.31580 | 342 ft | 24 kts | 302° |
| 2026-05-06 13:53 | 44.81323 | 20.31379 | 342 ft | 24 kts | 302° |
| 2026-05-06 13:53 | 44.81412 | 20.31175 | 342 ft | 24 kts | 300° |
| 2026-05-06 13:53 | 44.81498 | 20.30962 | 342 ft | 24 kts | 298° |
| 2026-05-06 13:53 | 44.81563 | 20.30769 | 342 ft | 19 kts | 292° |
| 2026-05-06 13:54 | 44.81606 | 20.30617 | 341 ft | 14 kts | 291° |
| 2026-05-06 13:54 | 44.81639 | 20.30497 | 341 ft | 11 kts | 290° |
| 2026-05-06 13:54 | 44.81681 | 20.30422 | 341 ft | 9 kts | 327° |
| 2026-05-06 13:54 | 44.81738 | 20.30371 | 341 ft | 10 kts | 327° |
| 2026-05-06 13:55 | 44.81797 | 20.30301 | 341 ft | 12 kts | 309° |
| 2026-05-06 13:55 | 44.81854 | 20.30181 | 341 ft | 16 kts | 301° |
| 2026-05-06 13:55 | 44.81916 | 20.30039 | 341 ft | 17 kts | 301° |
| 2026-05-06 13:55 | 44.81982 | 20.29888 | 341 ft | 18 kts | 302° |
| 2026-05-06 13:56 | 44.82055 | 20.29727 | 341 ft | 19 kts | 302° |
| 2026-05-06 13:56 | 44.82108 | 20.29582 | 341 ft | 13 kts | 268° |
| 2026-05-06 13:56 | 44.82092 | 20.29458 | 341 ft | 13 kts | 289° |
| 2026-05-06 13:56 | 44.82129 | 20.29336 | 341 ft | 14 kts | 257° |
| 2026-05-06 13:57 | 44.82099 | 20.29289 | 341 ft | 0 kts | 208° |